Terminal Aerodrome Forecast
Issued by NWS Quad Cities IA IL

Home | Current Version | Previous Version | Text Only | Print | Product List | Glossary On
Versions: 1 2 3 4 5 6 7 8 9 10 11 12 13 14 15 16 17 18 19 20 21 22 23 24 25 26
520
FTUS43 KDVN 182053 AAA
TAFDBQ
TAF AMD
KDBQ 182053Z 1821/1918 16020G28KT P6SM OVC200
     FM182300 17017KT P6SM BKN200 WS015/19050KT
     FM190700 19008KT 1/2SM -DZ FG OVC004
     FM191500 14005KT 1SM -SHRA BR OVC004=

USA.gov is the U.S. government's official web portal to all federal, state and local government web resources and services.